KDTW/DTW METAR and TAF weather

Enter ICAO airport designator
Station Type Date Time Source
KDTW METAR 2019/04/25 01:53 UTC NOAA

KDTW 250153Z 15006KT 10SM SCT130 BKN200 11/02 A2993 RMK AO2 SLP136 T01060022


Station Type Date Time Source
KDTW Decoded METAR 2019/04/25 01:53 UTC NOAA

DETROIT METROPOLITAN, MI, United States (KDTW) 42-14N 83-20W 195M
Apr 24, 2019 - 09:53 PM EDT / 2019.04.25 0153 UTC
Wind: from the SSE (150 degrees) at 7 MPH (6 KT):0
Visibility: 10 mile(s):0
Sky conditions: mostly cloudy
Temperature: 51.1 F (10.6 C)
Dew Point: 36.0 F (2.2 C)
Relative Humidity: 56%
Pressure (altimeter): 29.93 in. Hg (1013 hPa)
ob: KDTW 250153Z 15006KT 10SM SCT130 BKN200 11/02 A2993 RMK AO2 SLP136 T01060022
cycle: 2

Station Type Date Time Source
KDTW TAF 2019/04/24 21:06 UTC NOAA

TAF
AMD KDTW 242105Z 2421/2524 16006KT P6SM BKN250
FM250400 14004KT P6SM OVC100
FM251300 13006KT P6SM SCT050 OVC080

Example: see airport list